Aérodrome :
LOGIN :

S'inscrire | Disclaimer

   EN    FR    IT 

 










Légende :    VFR   VFR Marginal   IFR   IFR Intensif   IFR Très Intensif
Visi : 
Plafond : 
>= 8 km
>= 3000ft
5 à 8 km
1000 à 3000 ft
1500m à 5 km
500 à 1000 ft
800 à 1500m
200 à 500 ft
< 800m
< 200 ft
Symboles :   Orages  Brouillard  Fortes neiges  Fortes précipitations  Vent > 20 kt
SIGMETs :   Divers  Orages  Givrage  Turbulence  Onde Orograph.  Cendres Volcan.






- Altitude de l'aérodrome : 3 ft
- Code IATA : LWR


EHLW - Leuuwarden Air Base

DERNIER METAR :
  • 261125Z AUTO 18006KT 150V220 9999 OVC046 18/15 Q1013 BLU

METARs EXPIRÉS :
  • 261055Z AUTO 17003KT 100V180 9999 OVC048 17/15 Q1013 RERA BLU
  • 261041Z AUTO 16003KT 100V190 9000 -RA FEW015CB SCT047 OVC052 17/15 Q1013 BLU
  • 261029Z AUTO 16005KT 130V200 4500 +RA FEW015CB OVC049 17/15 Q1013 GRN
  • 261025Z AUTO 16005KT 140V200 9999 FEW015CB OVC049 17/14 Q1013 BLU
  • 260955Z AUTO 17007KT 130V210 9999 FEW015CB OVC051 17/15 Q1014 BLU
  • 260925Z AUTO 15007KT 9999 OVC082 18/15 Q1013 BLU
  • 260855Z AUTO 15006KT 120V180 9999 FEW064 BKN087 OVC094 18/15 Q1013 BLU

TAF TAF EHLW
Valide du 26 à 09h jusqu'au 26 à 21h UTC


260832Z 2609/2621 16006KT CAVOK
PROB40
TEMPO 2609/2610 7000 -SHRA FEW045CB BKN050
BECMG 2611/2613 21007KT FEW020



MET'MAP, la Météo Aéronautique d'un coup d'oeil ! - Copyright ORBIFLY Décembre 2007 - Disclaimer

ORBIFLY MET'MAP TEAM :

Programmation & Développement : Alexandra Zaïnal
Sur une idée originale de : Baudouin d'Aumeries
Assistance à la programmation : Marc-Olivier Méhu
Soutien technique & logistique : Manuel Goepfert

Contact : metmap@orbifly.com




SOURCES & CREDITS :

   NOAA